createdAt,value
2023-11-09T00:02:15.010Z,65.00
2023-11-09T00:04:41.962Z,64.60
2023-11-09T00:07:09.085Z,63.10
2023-11-09T00:09:36.486Z,64.00
2023-11-09T00:12:05.642Z,64.60
2023-11-09T00:14:33.274Z,64.50
2023-11-09T00:17:00.619Z,63.00
2023-11-09T00:19:27.688Z,60.90
2023-11-09T00:21:54.709Z,60.80
2023-11-09T00:24:21.516Z,59.60
2023-11-09T00:26:49.686Z,60.30
2023-11-09T00:29:16.852Z,58.60
2023-11-09T00:31:43.652Z,61.30
2023-11-09T00:34:13.671Z,62.70
2023-11-09T00:36:40.564Z,62.90
2023-11-09T00:39:08.617Z,63.10
2023-11-09T00:41:35.437Z,63.10
2023-11-09T00:44:02.410Z,61.60
2023-11-09T00:46:29.193Z,61.00
2023-11-09T00:48:56.077Z,61.10
2023-11-09T00:51:23.099Z,61.10
2023-11-09T00:53:50.172Z,60.80
2023-11-09T00:56:17.233Z,61.50
2023-11-09T00:58:43.968Z,62.10
2023-11-09T01:01:10.718Z,62.40
2023-11-09T01:03:38.693Z,64.40
2023-11-09T01:06:08.443Z,66.10
2023-11-09T01:08:35.389Z,66.50
2023-11-09T01:11:07.246Z,67.00
2023-11-09T01:13:35.683Z,66.90
2023-11-09T01:16:03.476Z,66.60
2023-11-09T01:18:30.645Z,67.60
2023-11-09T01:20:57.669Z,68.20
2023-11-09T01:23:25.088Z,68.40
2023-11-09T01:25:51.913Z,68.50
2023-11-09T01:28:18.791Z,69.30
2023-11-09T01:30:47.735Z,70.30
2023-11-09T01:33:14.890Z,71.60
2023-11-09T01:35:41.771Z,73.40
2023-11-09T01:38:08.621Z,74.20
2023-11-09T01:40:37.398Z,75.30
2023-11-09T01:43:11.389Z,76.40
2023-11-09T01:45:38.208Z,77.10
2023-11-09T01:48:05.532Z,77.40
2023-11-09T01:50:33.070Z,78.20
2023-11-09T01:53:00.681Z,79.00
2023-11-09T01:55:31.046Z,79.80
2023-11-09T01:57:58.089Z,80.20
2023-11-09T02:00:25.267Z,80.60
2023-11-09T02:02:54.696Z,81.10
2023-11-09T02:05:25.988Z,81.10
2023-11-09T02:07:55.998Z,80.90
2023-11-09T02:10:24.062Z,80.60
2023-11-09T02:12:51.047Z,80.60
2023-11-09T02:15:18.012Z,80.50
2023-11-09T02:17:46.420Z,80.30
2023-11-09T02:20:14.612Z,80.00
2023-11-09T02:22:44.484Z,80.20
2023-11-09T02:25:11.886Z,79.90
2023-11-09T02:27:38.692Z,79.50
2023-11-09T02:30:06.369Z,79.50
2023-11-09T02:32:33.216Z,79.70
2023-11-09T02:35:01.751Z,80.70
2023-11-09T02:37:28.794Z,81.20
2023-11-09T02:39:56.015Z,81.40
2023-11-09T02:42:23.363Z,81.40
2023-11-09T02:44:50.699Z,81.70
2023-11-09T02:47:17.469Z,81.80
2023-11-09T02:49:44.279Z,82.10
2023-11-09T02:52:11.750Z,82.40
2023-11-09T02:54:38.710Z,82.60
2023-11-09T02:57:06.417Z,82.80
2023-11-09T02:59:33.360Z,83.10
2023-11-09T03:02:00.205Z,83.20
2023-11-09T03:04:27.353Z,83.30
2023-11-09T03:06:54.223Z,83.30
2023-11-09T03:09:21.113Z,83.20
2023-11-09T03:11:47.813Z,83.40
2023-11-09T03:14:15.514Z,83.70
2023-11-09T03:16:42.301Z,83.90
2023-11-09T03:19:09.189Z,83.80
2023-11-09T03:21:36.204Z,83.80
2023-11-09T03:24:03.026Z,83.70
2023-11-09T03:26:30.687Z,83.60
2023-11-09T03:28:57.913Z,83.60
2023-11-09T03:31:24.706Z,83.30
2023-11-09T03:33:51.549Z,83.10
2023-11-09T03:36:19.631Z,83.80
2023-11-09T03:38:50.011Z,84.20
2023-11-09T03:41:17.073Z,84.80
2023-11-09T03:43:43.798Z,85.20
2023-11-09T03:46:14.308Z,85.30
2023-11-09T03:48:41.930Z,85.30
2023-11-09T03:51:09.191Z,85.10
2023-11-09T03:53:36.043Z,85.20
2023-11-09T03:56:03.301Z,85.60
2023-11-09T03:58:30.206Z,86.10
2023-11-09T04:00:57.085Z,86.30
2023-11-09T04:03:24.089Z,86.60
2023-11-09T04:05:50.897Z,86.60
2023-11-09T04:08:18.004Z,86.60
2023-11-09T04:10:44.848Z,86.80
2023-11-09T04:13:11.603Z,86.80
2023-11-09T04:15:38.675Z,86.90
2023-11-09T04:18:05.525Z,86.90
2023-11-09T04:20:32.703Z,86.60
2023-11-09T04:23:02.238Z,86.50
2023-11-09T04:25:30.384Z,86.50
2023-11-09T04:27:57.301Z,86.50
2023-11-09T04:30:29.353Z,86.60
2023-11-09T04:32:58.760Z,86.60
2023-11-09T04:35:25.863Z,86.60
2023-11-09T04:37:56.989Z,87.00
2023-11-09T04:40:26.610Z,87.30
2023-11-09T04:42:54.378Z,87.60
2023-11-09T04:45:22.373Z,87.70
2023-11-09T04:47:56.024Z,87.70
2023-11-09T04:50:29.655Z,87.50
2023-11-09T04:53:16.735Z,87.20
2023-11-09T04:55:55.085Z,87.10
2023-11-09T04:58:40.565Z,87.00
2023-11-09T05:01:26.138Z,86.80
2023-11-09T05:04:11.737Z,86.50
2023-11-09T05:06:50.516Z,86.20
2023-11-09T05:09:19.471Z,86.20
2023-11-09T05:11:47.582Z,86.20
2023-11-09T05:14:14.935Z,86.40
2023-11-09T05:16:41.924Z,86.50
2023-11-09T05:19:09.431Z,86.60
2023-11-09T05:21:37.037Z,86.60
2023-11-09T05:24:04.367Z,86.20
2023-11-09T05:26:33.872Z,86.50
2023-11-09T05:29:00.881Z,86.50
2023-11-09T05:31:27.748Z,87.00
2023-11-09T05:33:55.778Z,87.30
2023-11-09T05:36:22.652Z,87.40
2023-11-09T05:38:49.872Z,87.60
2023-11-09T05:41:18.669Z,87.80
2023-11-09T05:43:45.980Z,87.80
2023-11-09T05:46:13.109Z,87.80
2023-11-09T05:48:40.319Z,88.10
2023-11-09T05:51:07.195Z,88.30
2023-11-09T05:53:35.040Z,88.50
2023-11-09T05:56:01.918Z,88.60
2023-11-09T05:58:28.921Z,88.70
2023-11-09T06:00:55.800Z,88.70
2023-11-09T06:03:23.752Z,88.70
2023-11-09T06:05:51.788Z,88.60
2023-11-09T06:08:20.105Z,88.40
2023-11-09T06:10:48.763Z,88.30
2023-11-09T06:13:15.547Z,88.30
2023-11-09T06:15:43.270Z,88.30
2023-11-09T06:18:14.317Z,88.10
2023-11-09T06:20:41.142Z,87.90
2023-11-09T06:23:08.242Z,87.50
2023-11-09T06:25:35.037Z,87.30
2023-11-09T06:28:03.748Z,87.00
2023-11-09T06:30:30.806Z,86.90
2023-11-09T06:32:57.788Z,87.10
2023-11-09T06:35:24.644Z,87.40
2023-11-09T06:37:51.635Z,87.70
2023-11-09T06:40:18.861Z,87.90
2023-11-09T06:42:48.263Z,88.00
2023-11-09T06:45:15.309Z,88.00
2023-11-09T06:47:43.103Z,88.20
2023-11-09T06:50:13.714Z,88.20
2023-11-09T06:52:42.760Z,88.30
2023-11-09T06:55:11.297Z,88.30
2023-11-09T06:57:40.733Z,88.30
2023-11-09T07:00:08.805Z,88.20
2023-11-09T07:02:35.620Z,88.10
2023-11-09T07:05:02.581Z,88.10
2023-11-09T07:07:29.729Z,88.10
2023-11-09T07:09:56.546Z,88.40
2023-11-09T07:12:23.412Z,88.80
2023-11-09T07:14:50.280Z,88.70
2023-11-09T07:17:17.094Z,88.60
2023-11-09T07:19:49.095Z,88.60
2023-11-09T07:22:16.948Z,88.70
2023-11-09T07:24:52.505Z,89.00
2023-11-09T07:27:24.338Z,89.10
2023-11-09T07:29:51.329Z,89.30
2023-11-09T07:32:18.628Z,89.50
2023-11-09T07:34:45.576Z,89.60
2023-11-09T07:37:14.795Z,89.40
2023-11-09T07:39:43.652Z,89.50
2023-11-09T07:42:10.926Z,89.40
2023-11-09T07:44:37.686Z,89.30
2023-11-09T07:47:05.276Z,89.00
2023-11-09T07:49:32.139Z,89.10
2023-11-09T07:52:00.098Z,89.00
2023-11-09T07:54:29.789Z,89.60
2023-11-09T07:57:00.186Z,89.60
2023-11-09T07:59:30.012Z,89.60
2023-11-09T08:02:00.751Z,89.80
2023-11-09T08:04:29.560Z,89.90
2023-11-09T08:06:56.495Z,89.30
2023-11-09T08:09:23.308Z,89.50
2023-11-09T08:11:50.171Z,89.80
2023-11-09T08:14:17.663Z,89.60
2023-11-09T08:16:44.476Z,89.90
2023-11-09T08:19:11.740Z,90.10
2023-11-09T08:21:39.587Z,89.90
2023-11-09T08:24:06.909Z,90.10
2023-11-09T08:26:33.753Z,89.60
2023-11-09T08:29:01.957Z,89.80
2023-11-09T08:31:29.514Z,89.70
2023-11-09T08:33:56.539Z,90.00
2023-11-09T08:36:23.429Z,89.90
2023-11-09T08:38:50.201Z,90.10
2023-11-09T08:41:17.338Z,90.10
2023-11-09T08:43:46.058Z,90.30
2023-11-09T08:46:12.998Z,90.40
2023-11-09T08:48:41.723Z,90.50
2023-11-09T08:51:15.582Z,90.60
2023-11-09T08:53:43.466Z,90.50
2023-11-09T08:56:13.524Z,90.50
2023-11-09T08:58:41.713Z,90.60
2023-11-09T09:01:19.677Z,90.60
2023-11-09T09:03:50.937Z,90.60
2023-11-09T09:06:19.148Z,90.60
2023-11-09T09:08:47.893Z,90.60
2023-11-09T09:11:15.718Z,90.60
2023-11-09T09:13:43.364Z,90.70
2023-11-09T09:16:11.225Z,90.70
2023-11-09T09:18:38.361Z,90.80
2023-11-09T09:21:09.407Z,90.90
2023-11-09T09:23:38.103Z,91.00
2023-11-09T09:26:14.997Z,91.10
2023-11-09T09:28:49.832Z,91.10
2023-11-09T09:31:19.611Z,91.20
2023-11-09T09:34:11.308Z,91.10
2023-11-09T09:36:38.774Z,91.20
2023-11-09T09:39:07.953Z,91.20
2023-11-09T09:41:51.094Z,91.30
2023-11-09T09:44:19.343Z,91.30
2023-11-09T09:46:46.480Z,91.40
2023-11-09T09:49:15.798Z,91.50
2023-11-09T09:51:42.891Z,91.50
2023-11-09T09:54:10.058Z,91.60
2023-11-09T09:56:42.005Z,91.70
2023-11-09T09:59:12.654Z,91.80
2023-11-09T10:01:49.618Z,91.90
2023-11-09T10:04:17.025Z,92.00
2023-11-09T10:06:46.828Z,92.00
2023-11-09T10:09:15.934Z,92.10
2023-11-09T10:11:43.670Z,92.20
2023-11-09T10:14:12.842Z,92.30
2023-11-09T10:16:40.182Z,92.40
2023-11-09T10:19:07.145Z,92.50
2023-11-09T10:21:35.261Z,92.60
2023-11-09T10:24:04.017Z,92.60
2023-11-09T10:26:41.210Z,92.70
2023-11-09T10:29:15.058Z,92.80
2023-11-09T10:31:42.772Z,93.00
2023-11-09T10:34:13.316Z,93.10
2023-11-09T10:36:45.152Z,93.20
2023-11-09T10:39:20.709Z,93.50
2023-11-09T10:41:55.045Z,94.10
2023-11-09T10:44:31.223Z,94.60
2023-11-09T10:47:03.992Z,90.00
2023-11-09T10:49:37.323Z,89.40
2023-11-09T10:52:06.471Z,88.60
2023-11-09T10:54:34.074Z,87.50
2023-11-09T10:57:01.827Z,85.90
2023-11-09T10:59:30.766Z,83.70
2023-11-09T11:02:05.901Z,91.60
2023-11-09T11:04:37.714Z,92.30
2023-11-09T11:07:08.246Z,85.70
2023-11-09T11:09:39.193Z,85.50
2023-11-09T11:12:12.233Z,83.90
2023-11-09T11:14:43.051Z,78.50
2023-11-09T11:17:16.243Z,70.70
2023-11-09T11:20:45.159Z,31.80
2023-11-09T11:23:23.900Z,1.00
2023-11-09T11:26:14.088Z,1.00
2023-11-09T11:28:42.168Z,1.00
2023-11-09T11:31:09.280Z,1.00
2023-11-09T11:33:38.870Z,88.60
2023-11-09T11:36:08.867Z,71.90
2023-11-09T11:38:36.552Z,26.90
2023-11-09T11:41:06.862Z,1.00
2023-11-09T11:43:40.945Z,1.00
2023-11-09T11:46:18.507Z,1.00
2023-11-09T11:48:54.920Z,1.00
2023-11-09T11:51:24.392Z,1.00
2023-11-09T11:53:57.842Z,1.00
2023-11-09T11:56:38.667Z,63.40
2023-11-09T11:59:12.810Z,69.20
2023-11-09T12:01:42.102Z,1.00
2023-11-09T12:04:15.753Z,80.30
2023-11-09T12:06:45.815Z,1.00
2023-11-09T12:09:16.555Z,1.00
2023-11-09T12:11:46.164Z,57.30
2023-11-09T12:14:14.480Z,90.60
2023-11-09T12:16:41.643Z,1.00
2023-11-09T12:19:13.013Z,91.30
2023-11-09T12:21:40.559Z,84.50
2023-11-09T12:24:13.685Z,22.60
2023-11-09T12:26:43.351Z,17.90
2023-11-09T12:29:11.465Z,53.10
2023-11-09T12:31:39.235Z,64.90
2023-11-09T12:34:11.281Z,1.00
2023-11-09T12:36:42.187Z,85.80
2023-11-09T12:39:30.537Z,50.30
2023-11-09T12:42:02.483Z,1.00
2023-11-09T12:44:31.489Z,1.00
2023-11-09T12:47:26.977Z,89.60
2023-11-09T12:50:02.598Z,1.00
2023-11-09T12:52:29.933Z,1.00
2023-11-09T12:54:57.842Z,1.00
2023-11-09T12:57:25.922Z,66.10
2023-11-09T12:59:56.971Z,69.10
2023-11-09T13:02:35.894Z,55.40
2023-11-09T13:05:02.861Z,1.00
2023-11-09T13:07:29.784Z,1.00
2023-11-09T13:10:15.425Z,1.00
2023-11-09T13:12:46.146Z,12.10
2023-11-09T13:15:15.486Z,1.00
2023-11-09T13:17:51.099Z,1.00
2023-11-09T13:20:30.235Z,1.00
2023-11-09T13:23:09.299Z,1.00
2023-11-09T13:25:42.008Z,1.00
2023-11-09T13:28:16.573Z,73.00
2023-11-09T13:30:58.978Z,72.10
2023-11-09T13:33:29.993Z,62.60
2023-11-09T13:35:59.362Z,60.20
2023-11-09T13:38:44.677Z,78.90
2023-11-09T13:41:18.607Z,54.80
2023-11-09T13:44:01.571Z,46.20
2023-11-09T13:46:30.037Z,12.40
2023-11-09T13:49:11.624Z,1.00
2023-11-09T13:51:38.615Z,1.00
2023-11-09T13:54:32.096Z,1.00
2023-11-09T13:57:14.609Z,1.00
2023-11-09T13:59:53.670Z,1.00
2023-11-09T14:02:28.615Z,1.00
2023-11-09T14:05:04.101Z,1.00
2023-11-09T14:07:33.610Z,1.00
2023-11-09T14:10:12.037Z,1.00
2023-11-09T14:12:39.289Z,1.00
2023-11-09T14:15:26.494Z,1.00
2023-11-09T14:18:04.082Z,1.00
2023-11-09T14:20:35.531Z,1.00
2023-11-09T14:23:06.866Z,1.00
2023-11-09T14:25:40.650Z,1.00
2023-11-09T14:28:07.665Z,1.00
2023-11-09T14:30:34.646Z,55.40
2023-11-09T14:33:03.231Z,38.80
2023-11-09T14:35:34.703Z,61.50
2023-11-09T14:38:06.447Z,63.60
2023-11-09T14:40:37.658Z,84.90
2023-11-09T14:43:10.681Z,75.80
2023-11-09T14:45:42.163Z,64.60
2023-11-09T14:48:12.795Z,82.80
2023-11-09T14:50:40.692Z,90.30
2023-11-09T14:53:12.043Z,1.00
2023-11-09T14:55:41.341Z,1.00
2023-11-09T14:58:24.927Z,1.00
2023-11-09T15:00:52.760Z,1.00
2023-11-09T15:03:20.334Z,1.00
2023-11-09T15:05:51.708Z,68.50
2023-11-09T15:08:19.460Z,67.40
2023-11-09T15:10:48.094Z,27.00
2023-11-09T15:13:14.970Z,81.30
2023-11-09T15:15:42.169Z,1.00
2023-11-09T15:18:10.854Z,1.00
2023-11-09T15:20:38.998Z,1.00
2023-11-09T15:23:07.086Z,1.00
2023-11-09T15:25:34.215Z,1.00
2023-11-09T15:28:02.682Z,1.00
2023-11-09T15:30:31.146Z,1.00
2023-11-09T15:33:01.112Z,1.00
2023-11-09T15:35:29.091Z,1.00
2023-11-09T15:37:58.414Z,36.70
2023-11-09T15:41:09.573Z,3.00
2023-11-09T15:43:13.176Z,1.00
2023-11-09T15:45:41.357Z,75.10
2023-11-09T15:48:09.205Z,1.00
2023-11-09T15:50:37.732Z,1.00
2023-11-09T15:53:05.390Z,87.20
2023-11-09T15:55:32.289Z,84.10
2023-11-09T15:58:03.774Z,1.00
2023-11-09T16:00:32.728Z,77.30
2023-11-09T16:02:59.769Z,1.00
2023-11-09T16:05:26.572Z,38.20
2023-11-09T16:07:54.475Z,72.10
2023-11-09T16:10:25.125Z,83.90
2023-11-09T16:12:54.989Z,1.00
2023-11-09T16:15:22.504Z,1.00
2023-11-09T16:17:50.725Z,1.00
2023-11-09T16:20:30.611Z,1.00
2023-11-09T16:23:00.691Z,12.30
2023-11-09T16:25:28.645Z,38.00
2023-11-09T16:27:55.475Z,56.40
2023-11-09T16:30:31.732Z,62.30
2023-11-09T16:33:01.917Z,62.90
2023-11-09T16:35:31.487Z,64.20
2023-11-09T16:37:58.952Z,63.50
2023-11-09T16:40:26.209Z,62.90
2023-11-09T16:42:53.583Z,62.30
2023-11-09T16:45:21.860Z,64.30
2023-11-09T16:47:49.128Z,64.00
2023-11-09T16:50:17.260Z,63.90
2023-11-09T16:52:44.763Z,64.00
2023-11-09T16:55:12.649Z,65.80
2023-11-09T16:57:44.167Z,66.70
2023-11-09T17:00:18.406Z,66.80
2023-11-09T17:02:51.776Z,66.70
2023-11-09T17:05:19.364Z,66.70
2023-11-09T17:07:47.270Z,66.70
2023-11-09T17:10:15.265Z,66.10
2023-11-09T17:12:44.836Z,64.60
2023-11-09T17:15:13.475Z,64.00
2023-11-09T17:17:44.162Z,64.20
2023-11-09T17:20:12.762Z,63.70
2023-11-09T17:22:40.701Z,63.00
2023-11-09T17:25:09.532Z,63.30
2023-11-09T17:27:37.202Z,64.50
2023-11-09T17:30:10.212Z,65.30
2023-11-09T17:35:06.209Z,65.50
2023-11-09T17:37:33.665Z,66.70
2023-11-09T17:40:00.952Z,67.40
2023-11-09T17:42:27.823Z,67.30
2023-11-09T17:44:54.566Z,66.20
2023-11-09T17:47:21.794Z,66.40
2023-11-09T17:49:51.618Z,65.90
2023-11-09T17:52:18.411Z,65.60
2023-11-09T17:54:45.287Z,64.70
2023-11-09T17:57:12.100Z,64.20
2023-11-09T17:59:40.955Z,65.50
2023-11-09T18:02:08.115Z,67.70
2023-11-09T18:04:36.432Z,68.10
2023-11-09T18:07:05.269Z,66.30
2023-11-09T18:09:32.199Z,65.30
2023-11-09T18:12:00.924Z,65.10
2023-11-09T18:14:28.175Z,63.50
2023-11-09T18:16:55.320Z,62.00
2023-11-09T18:19:22.338Z,62.30
2023-11-09T18:21:50.559Z,60.00
2023-11-09T18:24:18.051Z,58.30
2023-11-09T18:26:46.330Z,50.30
2023-11-09T18:29:14.088Z,37.00
2023-11-09T18:31:41.247Z,34.80
2023-11-09T18:34:08.285Z,26.50
2023-11-09T18:36:35.070Z,25.00
2023-11-09T18:39:01.866Z,26.20
2023-11-09T18:41:29.430Z,29.30
2023-11-09T18:43:56.944Z,23.70
2023-11-09T18:46:24.960Z,17.80
2023-11-09T18:48:51.963Z,13.80
2023-11-09T18:51:19.483Z,11.30
2023-11-09T18:53:47.408Z,11.00
2023-11-09T18:56:18.087Z,11.70
2023-11-09T18:58:45.023Z,21.60
2023-11-09T19:01:12.054Z,32.90
2023-11-09T19:06:08.793Z,35.70
2023-11-09T19:08:37.098Z,38.90
2023-11-09T19:11:06.026Z,47.40
2023-11-09T19:13:33.157Z,53.80
2023-11-09T19:16:00.139Z,61.10
2023-11-09T19:18:27.194Z,61.10
2023-11-09T19:23:26.949Z,61.40
2023-11-09T19:25:54.164Z,61.60
2023-11-09T19:28:21.312Z,61.70
2023-11-09T19:30:48.222Z,61.50
2023-11-09T19:33:17.633Z,60.80
2023-11-09T19:35:44.684Z,61.40
2023-11-09T19:38:11.546Z,63.20
2023-11-09T19:40:48.706Z,64.60
2023-11-09T19:43:15.677Z,65.30
2023-11-09T19:45:44.194Z,66.20
2023-11-09T19:48:12.927Z,66.60
2023-11-09T19:50:40.818Z,66.60
2023-11-09T19:53:08.692Z,65.80
2023-11-09T19:55:36.911Z,65.40
2023-11-09T19:58:10.236Z,64.90
2023-11-09T20:00:39.189Z,65.10
2023-11-09T20:03:07.979Z,65.40
2023-11-09T20:05:36.450Z,64.90
2023-11-09T20:08:04.426Z,65.90
2023-11-09T20:10:31.807Z,66.90
2023-11-09T20:12:59.764Z,67.70
2023-11-09T20:15:28.297Z,68.60
2023-11-09T20:17:55.594Z,68.80
2023-11-09T20:20:22.556Z,68.50
2023-11-09T20:22:49.724Z,68.80
2023-11-09T20:25:16.716Z,69.10
2023-11-09T20:27:44.433Z,69.60
2023-11-09T20:30:14.735Z,70.40
2023-11-09T20:32:43.443Z,70.50
2023-11-09T20:35:11.877Z,70.40
2023-11-09T20:37:41.081Z,70.70
2023-11-09T20:40:12.615Z,70.90
2023-11-09T20:42:41.111Z,71.40
2023-11-09T20:45:12.313Z,71.10
2023-11-09T20:47:40.806Z,70.90
2023-11-09T20:50:14.254Z,70.80
2023-11-09T20:52:42.280Z,70.60
2023-11-09T20:55:14.217Z,70.70
2023-11-09T20:57:41.346Z,71.10
2023-11-09T21:00:10.066Z,71.80
2023-11-09T21:02:37.413Z,72.30
2023-11-09T21:05:06.007Z,72.90
2023-11-09T21:07:36.009Z,73.40
2023-11-09T21:10:02.885Z,74.20
2023-11-09T21:12:29.769Z,73.60
2023-11-09T21:14:56.722Z,72.70
2023-11-09T21:17:25.659Z,71.80
2023-11-09T21:19:52.691Z,71.90
2023-11-09T21:22:19.602Z,72.40
2023-11-09T21:24:46.552Z,72.80
2023-11-09T21:27:14.634Z,73.70
2023-11-09T21:29:41.676Z,74.50
2023-11-09T21:32:12.040Z,75.00
2023-11-09T21:34:41.683Z,75.30
2023-11-09T21:37:09.208Z,75.60
2023-11-09T21:39:38.627Z,85.80
2023-11-09T21:42:09.818Z,85.80
2023-11-09T21:44:37.594Z,86.20
2023-11-09T21:47:05.553Z,86.80
2023-11-09T21:49:35.231Z,86.70
2023-11-09T21:52:03.800Z,87.00
2023-11-09T21:54:31.078Z,87.50
2023-11-09T21:56:58.934Z,87.80
2023-11-09T21:59:27.931Z,87.90
2023-11-09T22:01:55.070Z,87.90
2023-11-09T22:04:23.330Z,87.80
2023-11-09T22:06:50.380Z,87.90
2023-11-09T22:09:18.359Z,87.70
2023-11-09T22:11:47.512Z,87.80
2023-11-09T22:14:14.580Z,87.80
2023-11-09T22:16:44.564Z,87.80
2023-11-09T22:19:11.454Z,88.40
2023-11-09T22:21:38.380Z,88.30
2023-11-09T22:24:06.460Z,88.20
2023-11-09T22:26:34.310Z,88.10
2023-11-09T22:29:01.438Z,88.00
2023-11-09T22:31:29.145Z,88.20
2023-11-09T22:33:56.220Z,88.10
2023-11-09T22:36:23.208Z,87.80
2023-11-09T22:38:50.898Z,87.60
2023-11-09T22:41:18.370Z,87.20
2023-11-09T22:43:45.211Z,87.20
2023-11-09T22:46:13.750Z,87.50
2023-11-09T22:48:40.865Z,88.00
2023-11-09T22:51:07.881Z,88.20
2023-11-09T22:53:34.816Z,88.20
2023-11-09T22:56:01.728Z,88.00
2023-11-09T22:58:28.496Z,88.40
2023-11-09T23:00:57.517Z,88.70
2023-11-09T23:03:24.625Z,89.10
2023-11-09T23:05:52.514Z,89.40
2023-11-09T23:08:20.547Z,89.90
2023-11-09T23:10:54.138Z,90.00
2023-11-09T23:13:21.300Z,90.00
2023-11-09T23:15:48.146Z,90.00
2023-11-09T23:18:17.921Z,89.90
2023-11-09T23:20:45.475Z,90.00
2023-11-09T23:23:12.961Z,90.10
2023-11-09T23:25:39.875Z,90.10
2023-11-09T23:28:06.699Z,90.10
2023-11-09T23:30:33.589Z,90.20
2023-11-09T23:33:00.546Z,90.30
2023-11-09T23:35:29.623Z,90.40
2023-11-09T23:37:56.801Z,90.50
2023-11-09T23:40:23.854Z,90.70
2023-11-09T23:42:51.431Z,90.70
2023-11-09T23:45:18.641Z,91.00
2023-11-09T23:47:46.708Z,91.30
2023-11-09T23:50:13.840Z,91.40
2023-11-09T23:52:40.759Z,91.40
2023-11-09T23:55:08.370Z,91.50
2023-11-09T23:57:35.669Z,91.60
